sensor_id;sensor_type;location;lat;lon;timestamp;temperature;humidity
44431;DHT22;30135;47.866;-4.222;2022-07-23T00:00:15;18.80;68.00
44431;DHT22;30135;47.866;-4.222;2022-07-23T00:02:41;18.80;68.00
44431;DHT22;30135;47.866;-4.222;2022-07-23T00:05:08;18.80;68.10
44431;DHT22;30135;47.866;-4.222;2022-07-23T00:07:35;18.70;68.90
44431;DHT22;30135;47.866;-4.222;2022-07-23T00:10:00;18.70;68.30
44431;DHT22;30135;47.866;-4.222;2022-07-23T00:12:27;18.70;68.40
44431;DHT22;30135;47.866;-4.222;2022-07-23T00:14:53;18.60;68.40
44431;DHT22;30135;47.866;-4.222;2022-07-23T00:17:19;18.60;68.50
44431;DHT22;30135;47.866;-4.222;2022-07-23T00:19:45;18.60;68.70
44431;DHT22;30135;47.866;-4.222;2022-07-23T00:22:10;18.60;68.80
44431;DHT22;30135;47.866;-4.222;2022-07-23T00:24:36;18.50;68.80
44431;DHT22;30135;47.866;-4.222;2022-07-23T00:27:02;18.50;68.90
44431;DHT22;30135;47.866;-4.222;2022-07-23T00:29:29;18.50;69.00
44431;DHT22;30135;47.866;-4.222;2022-07-23T00:31:55;18.50;69.10
44431;DHT22;30135;47.866;-4.222;2022-07-23T00:34:21;18.50;69.20
44431;DHT22;30135;47.866;-4.222;2022-07-23T00:36:47;18.40;69.30
44431;DHT22;30135;47.866;-4.222;2022-07-23T00:39:13;18.40;69.40
44431;DHT22;30135;47.866;-4.222;2022-07-23T00:41:40;18.40;69.50
44431;DHT22;30135;47.866;-4.222;2022-07-23T00:44:22;18.40;69.50
44431;DHT22;30135;47.866;-4.222;2022-07-23T00:46:57;18.40;69.60
44431;DHT22;30135;47.866;-4.222;2022-07-23T00:49:26;18.40;69.70
44431;DHT22;30135;47.866;-4.222;2022-07-23T00:51:54;18.40;69.80
44431;DHT22;30135;47.866;-4.222;2022-07-23T00:54:22;18.40;69.80
44431;DHT22;30135;47.866;-4.222;2022-07-23T00:56:50;18.30;69.90
44431;DHT22;30135;47.866;-4.222;2022-07-23T00:59:16;18.40;69.90
44431;DHT22;30135;47.866;-4.222;2022-07-23T01:01:42;18.30;70.00
44431;DHT22;30135;47.866;-4.222;2022-07-23T01:04:10;18.30;70.00
44431;DHT22;30135;47.866;-4.222;2022-07-23T01:06:38;18.30;70.10
44431;DHT22;30135;47.866;-4.222;2022-07-23T01:09:05;18.30;70.10
44431;DHT22;30135;47.866;-4.222;2022-07-23T01:11:36;18.30;70.20
44431;DHT22;30135;47.866;-4.222;2022-07-23T01:14:15;18.30;70.60
44431;DHT22;30135;47.866;-4.222;2022-07-23T01:16:44;18.20;70.10
44431;DHT22;30135;47.866;-4.222;2022-07-23T01:19:12;18.20;70.10
44431;DHT22;30135;47.866;-4.222;2022-07-23T01:21:42;18.20;70.10
44431;DHT22;30135;47.866;-4.222;2022-07-23T01:24:14;18.20;70.20
44431;DHT22;30135;47.866;-4.222;2022-07-23T01:26:43;18.10;70.20
44431;DHT22;30135;47.866;-4.222;2022-07-23T01:29:09;18.10;70.20
44431;DHT22;30135;47.866;-4.222;2022-07-23T01:31:35;18.00;70.10
44431;DHT22;30135;47.866;-4.222;2022-07-23T01:34:02;18.00;70.40
44431;DHT22;30135;47.866;-4.222;2022-07-23T01:36:28;18.00;70.50
44431;DHT22;30135;47.866;-4.222;2022-07-23T01:38:55;18.00;70.50
44431;DHT22;30135;47.866;-4.222;2022-07-23T01:41:21;18.00;70.60
44431;DHT22;30135;47.866;-4.222;2022-07-23T01:43:47;18.00;70.60
44431;DHT22;30135;47.866;-4.222;2022-07-23T01:46:14;17.90;70.60
44431;DHT22;30135;47.866;-4.222;2022-07-23T01:48:46;17.90;70.70
44431;DHT22;30135;47.866;-4.222;2022-07-23T01:51:12;17.90;70.80
44431;DHT22;30135;47.866;-4.222;2022-07-23T01:53:38;17.80;70.70
44431;DHT22;30135;47.866;-4.222;2022-07-23T01:56:04;17.80;70.80
44431;DHT22;30135;47.866;-4.222;2022-07-23T01:58:30;17.80;71.00
44431;DHT22;30135;47.866;-4.222;2022-07-23T02:00:56;17.80;71.10
44431;DHT22;30135;47.866;-4.222;2022-07-23T02:03:22;17.80;71.30
44431;DHT22;30135;47.866;-4.222;2022-07-23T02:05:49;17.70;71.30
44431;DHT22;30135;47.866;-4.222;2022-07-23T02:08:15;17.70;71.40
44431;DHT22;30135;47.866;-4.222;2022-07-23T02:10:42;17.70;71.60
44431;DHT22;30135;47.866;-4.222;2022-07-23T02:13:08;17.70;71.70
44431;DHT22;30135;47.866;-4.222;2022-07-23T02:15:34;17.70;71.90
44431;DHT22;30135;47.866;-4.222;2022-07-23T02:18:01;17.70;72.00
44431;DHT22;30135;47.866;-4.222;2022-07-23T02:20:27;17.60;72.00
44431;DHT22;30135;47.866;-4.222;2022-07-23T02:22:59;17.70;72.10
44431;DHT22;30135;47.866;-4.222;2022-07-23T02:25:25;17.60;72.20
44431;DHT22;30135;47.866;-4.222;2022-07-23T02:27:51;17.60;72.30
44431;DHT22;30135;47.866;-4.222;2022-07-23T02:30:17;17.60;72.40
44431;DHT22;30135;47.866;-4.222;2022-07-23T02:32:43;17.60;72.50
44431;DHT22;30135;47.866;-4.222;2022-07-23T02:35:09;17.60;72.60
44431;DHT22;30135;47.866;-4.222;2022-07-23T02:37:35;17.60;72.60
44431;DHT22;30135;47.866;-4.222;2022-07-23T02:40:02;17.50;72.70
44431;DHT22;30135;47.866;-4.222;2022-07-23T02:42:28;17.50;72.80
44431;DHT22;30135;47.866;-4.222;2022-07-23T02:44:54;17.50;72.80
44431;DHT22;30135;47.866;-4.222;2022-07-23T02:47:20;17.50;72.90
44431;DHT22;30135;47.866;-4.222;2022-07-23T02:49:52;17.50;72.90
44431;DHT22;30135;47.866;-4.222;2022-07-23T02:52:18;17.50;72.90
44431;DHT22;30135;47.866;-4.222;2022-07-23T02:54:43;17.40;73.50
44431;DHT22;30135;47.866;-4.222;2022-07-23T02:57:09;17.40;72.60
44431;DHT22;30135;47.866;-4.222;2022-07-23T02:59:35;17.30;72.50
44431;DHT22;30135;47.866;-4.222;2022-07-23T03:02:01;17.30;72.50
44431;DHT22;30135;47.866;-4.222;2022-07-23T03:04:27;17.30;72.50
44431;DHT22;30135;47.866;-4.222;2022-07-23T03:06:53;17.30;72.50
44431;DHT22;30135;47.866;-4.222;2022-07-23T03:09:20;17.30;72.60
44431;DHT22;30135;47.866;-4.222;2022-07-23T03:11:46;17.20;72.60
44431;DHT22;30135;47.866;-4.222;2022-07-23T03:14:12;17.20;72.70
44431;DHT22;30135;47.866;-4.222;2022-07-23T03:16:40;17.20;72.80
44431;DHT22;30135;47.866;-4.222;2022-07-23T03:19:06;17.20;73.00
44431;DHT22;30135;47.866;-4.222;2022-07-23T03:21:32;17.20;73.00
44431;DHT22;30135;47.866;-4.222;2022-07-23T03:23:57;17.20;73.10
44431;DHT22;30135;47.866;-4.222;2022-07-23T03:26:23;17.20;73.20
44431;DHT22;30135;47.866;-4.222;2022-07-23T03:28:51;17.20;73.30
44431;DHT22;30135;47.866;-4.222;2022-07-23T03:31:17;17.10;73.20
44431;DHT22;30135;47.866;-4.222;2022-07-23T03:33:43;17.10;73.30
44431;DHT22;30135;47.866;-4.222;2022-07-23T03:36:09;17.10;73.40
44431;DHT22;30135;47.866;-4.222;2022-07-23T03:38:35;17.10;73.60
44431;DHT22;30135;47.866;-4.222;2022-07-23T03:41:01;17.10;73.60
44431;DHT22;30135;47.866;-4.222;2022-07-23T03:43:27;17.10;73.80
44431;DHT22;30135;47.866;-4.222;2022-07-23T03:45:53;17.00;73.90
44431;DHT22;30135;47.866;-4.222;2022-07-23T03:48:19;17.10;74.00
44431;DHT22;30135;47.866;-4.222;2022-07-23T03:50:52;17.00;74.10
44431;DHT22;30135;47.866;-4.222;2022-07-23T03:53:18;17.00;74.20
44431;DHT22;30135;47.866;-4.222;2022-07-23T03:55:45;17.00;74.30
44431;DHT22;30135;47.866;-4.222;2022-07-23T03:58:11;17.00;74.30
44431;DHT22;30135;47.866;-4.222;2022-07-23T04:00:37;17.00;74.40
44431;DHT22;30135;47.866;-4.222;2022-07-23T04:03:03;17.00;74.50
44431;DHT22;30135;47.866;-4.222;2022-07-23T04:05:29;17.00;74.60
44431;DHT22;30135;47.866;-4.222;2022-07-23T04:07:55;16.90;74.60
44431;DHT22;30135;47.866;-4.222;2022-07-23T04:10:21;17.00;74.80
44431;DHT22;30135;47.866;-4.222;2022-07-23T04:12:47;16.90;74.80
44431;DHT22;30135;47.866;-4.222;2022-07-23T04:15:13;16.90;74.80
44431;DHT22;30135;47.866;-4.222;2022-07-23T04:17:39;16.90;74.90
44431;DHT22;30135;47.866;-4.222;2022-07-23T04:20:06;16.90;74.90
44431;DHT22;30135;47.866;-4.222;2022-07-23T04:22:33;16.90;74.90
44431;DHT22;30135;47.866;-4.222;2022-07-23T04:24:59;16.90;74.90
44431;DHT22;30135;47.866;-4.222;2022-07-23T04:27:25;16.80;74.90
44431;DHT22;30135;47.866;-4.222;2022-07-23T04:29:51;16.80;75.00
44431;DHT22;30135;47.866;-4.222;2022-07-23T04:32:17;16.80;75.00
44431;DHT22;30135;47.866;-4.222;2022-07-23T04:34:42;16.80;75.00
44431;DHT22;30135;47.866;-4.222;2022-07-23T04:37:08;16.80;74.90
44431;DHT22;30135;47.866;-4.222;2022-07-23T04:39:34;16.80;74.80
44431;DHT22;30135;47.866;-4.222;2022-07-23T04:42:00;16.70;74.80
44431;DHT22;30135;47.866;-4.222;2022-07-23T04:44:26;16.70;74.70
44431;DHT22;30135;47.866;-4.222;2022-07-23T04:46:52;16.70;74.70
44431;DHT22;30135;47.866;-4.222;2022-07-23T04:49:17;16.70;74.70
44431;DHT22;30135;47.866;-4.222;2022-07-23T04:51:50;16.60;74.60
44431;DHT22;30135;47.866;-4.222;2022-07-23T04:54:16;16.60;74.60
44431;DHT22;30135;47.866;-4.222;2022-07-23T04:56:43;16.60;75.40
44431;DHT22;30135;47.866;-4.222;2022-07-23T04:59:09;16.60;74.50
44431;DHT22;30135;47.866;-4.222;2022-07-23T05:01:34;16.60;74.60
44431;DHT22;30135;47.866;-4.222;2022-07-23T05:04:00;16.50;74.50
44431;DHT22;30135;47.866;-4.222;2022-07-23T05:06:26;16.50;74.60
44431;DHT22;30135;47.866;-4.222;2022-07-23T05:08:52;16.50;74.70
44431;DHT22;30135;47.866;-4.222;2022-07-23T05:11:20;16.50;74.80
44431;DHT22;30135;47.866;-4.222;2022-07-23T05:13:46;16.50;74.90
44431;DHT22;30135;47.866;-4.222;2022-07-23T05:16:12;16.50;74.90
44431;DHT22;30135;47.866;-4.222;2022-07-23T05:18:38;16.50;75.00
44431;DHT22;30135;47.866;-4.222;2022-07-23T05:21:04;16.50;75.10
44431;DHT22;30135;47.866;-4.222;2022-07-23T05:23:31;16.50;75.10
44431;DHT22;30135;47.866;-4.222;2022-07-23T05:25:57;16.60;75.30
44431;DHT22;30135;47.866;-4.222;2022-07-23T05:28:23;16.60;75.40
44431;DHT22;30135;47.866;-4.222;2022-07-23T05:30:49;16.60;75.70
44431;DHT22;30135;47.866;-4.222;2022-07-23T05:33:15;16.60;75.80
44431;DHT22;30135;47.866;-4.222;2022-07-23T05:35:41;16.60;75.80
44431;DHT22;30135;47.866;-4.222;2022-07-23T05:38:07;16.60;76.00
44431;DHT22;30135;47.866;-4.222;2022-07-23T05:40:33;16.60;76.10
44431;DHT22;30135;47.866;-4.222;2022-07-23T05:42:59;16.70;76.40
44431;DHT22;30135;47.866;-4.222;2022-07-23T05:45:25;16.70;76.50
44431;DHT22;30135;47.866;-4.222;2022-07-23T05:47:51;16.70;76.70
44431;DHT22;30135;47.866;-4.222;2022-07-23T05:50:17;16.70;77.00
44431;DHT22;30135;47.866;-4.222;2022-07-23T05:52:50;16.80;77.30
44431;DHT22;30135;47.866;-4.222;2022-07-23T05:55:16;16.80;77.50
44431;DHT22;30135;47.866;-4.222;2022-07-23T05:57:42;16.80;77.60
44431;DHT22;30135;47.866;-4.222;2022-07-23T06:00:09;16.90;77.70
44431;DHT22;30135;47.866;-4.222;2022-07-23T06:02:37;16.80;77.90
44431;DHT22;30135;47.866;-4.222;2022-07-23T06:05:05;16.90;78.10
44431;DHT22;30135;47.866;-4.222;2022-07-23T06:07:33;16.90;78.30
44431;DHT22;30135;47.866;-4.222;2022-07-23T06:10:00;16.90;78.40
44431;DHT22;30135;47.866;-4.222;2022-07-23T06:12:26;17.00;78.50
44431;DHT22;30135;47.866;-4.222;2022-07-23T06:14:52;17.00;78.50
44431;DHT22;30135;47.866;-4.222;2022-07-23T06:17:18;17.00;78.60
44431;DHT22;30135;47.866;-4.222;2022-07-23T06:19:44;17.10;78.80
44431;DHT22;30135;47.866;-4.222;2022-07-23T06:22:10;17.10;79.00
44431;DHT22;30135;47.866;-4.222;2022-07-23T06:24:36;17.20;79.10
44431;DHT22;30135;47.866;-4.222;2022-07-23T06:27:03;17.20;79.20
44431;DHT22;30135;47.866;-4.222;2022-07-23T06:29:29;17.30;79.40
44431;DHT22;30135;47.866;-4.222;2022-07-23T06:31:55;17.30;79.50
44431;DHT22;30135;47.866;-4.222;2022-07-23T06:34:21;17.30;79.50
44431;DHT22;30135;47.866;-4.222;2022-07-23T06:36:47;17.40;79.80
44431;DHT22;30135;47.866;-4.222;2022-07-23T06:39:14;17.40;79.70
44431;DHT22;30135;47.866;-4.222;2022-07-23T06:41:40;17.40;79.80
44431;DHT22;30135;47.866;-4.222;2022-07-23T06:44:05;17.50;79.80
44431;DHT22;30135;47.866;-4.222;2022-07-23T06:46:31;17.50;79.90
44431;DHT22;30135;47.866;-4.222;2022-07-23T06:48:57;17.60;80.00
44431;DHT22;30135;47.866;-4.222;2022-07-23T06:51:23;17.60;80.00
44431;DHT22;30135;47.866;-4.222;2022-07-23T06:53:57;17.70;80.10
44431;DHT22;30135;47.866;-4.222;2022-07-23T06:56:24;17.70;80.00
44431;DHT22;30135;47.866;-4.222;2022-07-23T06:58:50;17.70;79.80
44431;DHT22;30135;47.866;-4.222;2022-07-23T07:01:16;17.80;80.00
44431;DHT22;30135;47.866;-4.222;2022-07-23T07:03:42;17.90;80.10
44431;DHT22;30135;47.866;-4.222;2022-07-23T07:06:08;17.90;80.40
44431;DHT22;30135;47.866;-4.222;2022-07-23T07:08:34;18.00;80.40
44431;DHT22;30135;47.866;-4.222;2022-07-23T07:11:00;18.00;80.50
44431;DHT22;30135;47.866;-4.222;2022-07-23T07:13:26;18.10;80.40
44431;DHT22;30135;47.866;-4.222;2022-07-23T07:15:52;18.10;80.50
44431;DHT22;30135;47.866;-4.222;2022-07-23T07:18:18;18.20;80.30
44431;DHT22;30135;47.866;-4.222;2022-07-23T07:20:44;18.20;80.70
44431;DHT22;30135;47.866;-4.222;2022-07-23T07:23:10;18.30;81.30
44431;DHT22;30135;47.866;-4.222;2022-07-23T07:25:36;18.30;81.00
44431;DHT22;30135;47.866;-4.222;2022-07-23T07:28:01;18.40;80.80
44431;DHT22;30135;47.866;-4.222;2022-07-23T07:30:28;18.40;80.60
44431;DHT22;30135;47.866;-4.222;2022-07-23T07:32:54;18.50;80.50
44431;DHT22;30135;47.866;-4.222;2022-07-23T07:35:20;18.50;80.50
44431;DHT22;30135;47.866;-4.222;2022-07-23T07:37:46;18.50;80.30
44431;DHT22;30135;47.866;-4.222;2022-07-23T07:40:13;18.60;80.80
44431;DHT22;30135;47.866;-4.222;2022-07-23T07:42:50;18.60;80.90
44431;DHT22;30135;47.866;-4.222;2022-07-23T07:45:20;18.70;81.30
44431;DHT22;30135;47.866;-4.222;2022-07-23T07:47:47;18.70;81.00
44431;DHT22;30135;47.866;-4.222;2022-07-23T07:50:14;18.80;81.10
44431;DHT22;30135;47.866;-4.222;2022-07-23T07:52:40;18.80;81.10
44431;DHT22;30135;47.866;-4.222;2022-07-23T07:55:12;18.90;80.70
44431;DHT22;30135;47.866;-4.222;2022-07-23T07:57:39;18.90;80.20
44431;DHT22;30135;47.866;-4.222;2022-07-23T08:00:07;18.90;80.10
44431;DHT22;30135;47.866;-4.222;2022-07-23T08:03:00;19.00;80.00
44431;DHT22;30135;47.866;-4.222;2022-07-23T08:05:28;19.00;79.50
44431;DHT22;30135;47.866;-4.222;2022-07-23T08:07:56;19.00;79.50
44431;DHT22;30135;47.866;-4.222;2022-07-23T08:10:24;19.10;79.40
44431;DHT22;30135;47.866;-4.222;2022-07-23T08:12:59;19.10;79.30
44431;DHT22;30135;47.866;-4.222;2022-07-23T08:15:28;19.20;78.90
44431;DHT22;30135;47.866;-4.222;2022-07-23T08:17:56;19.20;78.70
44431;DHT22;30135;47.866;-4.222;2022-07-23T08:20:24;19.20;78.50
44431;DHT22;30135;47.866;-4.222;2022-07-23T08:22:58;19.30;78.40
44431;DHT22;30135;47.866;-4.222;2022-07-23T08:25:38;19.40;78.20
44431;DHT22;30135;47.866;-4.222;2022-07-23T08:28:08;19.50;79.30
44431;DHT22;30135;47.866;-4.222;2022-07-23T08:30:36;19.50;78.00
44431;DHT22;30135;47.866;-4.222;2022-07-23T08:33:14;19.60;77.50
44431;DHT22;30135;47.866;-4.222;2022-07-23T08:35:46;19.70;76.80
44431;DHT22;30135;47.866;-4.222;2022-07-23T08:38:15;19.70;76.70
44431;DHT22;30135;47.866;-4.222;2022-07-23T08:40:45;19.80;76.40
44431;DHT22;30135;47.866;-4.222;2022-07-23T08:43:20;19.80;76.30
44431;DHT22;30135;47.866;-4.222;2022-07-23T08:45:51;19.80;76.00
44431;DHT22;30135;47.866;-4.222;2022-07-23T08:48:23;19.90;75.80
44431;DHT22;30135;47.866;-4.222;2022-07-23T08:50:55;20.00;75.40
44431;DHT22;30135;47.866;-4.222;2022-07-23T08:53:24;19.90;75.10
44431;DHT22;30135;47.866;-4.222;2022-07-23T08:56:00;20.00;75.10
44431;DHT22;30135;47.866;-4.222;2022-07-23T08:58:31;20.00;74.80
44431;DHT22;30135;47.866;-4.222;2022-07-23T09:00:57;20.00;74.60
44431;DHT22;30135;47.866;-4.222;2022-07-23T09:03:26;20.00;74.50
44431;DHT22;30135;47.866;-4.222;2022-07-23T09:05:54;20.10;74.40
44431;DHT22;30135;47.866;-4.222;2022-07-23T09:08:26;20.00;74.10
44431;DHT22;30135;47.866;-4.222;2022-07-23T09:11:15;20.10;74.10
44431;DHT22;30135;47.866;-4.222;2022-07-23T09:13:54;20.10;74.10
44431;DHT22;30135;47.866;-4.222;2022-07-23T09:16:27;20.10;73.90
44431;DHT22;30135;47.866;-4.222;2022-07-23T09:19:02;20.20;73.90
44431;DHT22;30135;47.866;-4.222;2022-07-23T09:21:31;20.20;73.70
44431;DHT22;30135;47.866;-4.222;2022-07-23T09:26:42;20.20;73.30
44431;DHT22;30135;47.866;-4.222;2022-07-23T09:29:17;20.30;73.30
44431;DHT22;30135;47.866;-4.222;2022-07-23T09:34:30;20.40;72.80
44431;DHT22;30135;47.866;-4.222;2022-07-23T09:37:28;20.50;72.40
44431;DHT22;30135;47.866;-4.222;2022-07-23T09:40:04;20.50;71.70
44431;DHT22;30135;47.866;-4.222;2022-07-23T09:42:31;20.50;71.80
44431;DHT22;30135;47.866;-4.222;2022-07-23T09:44:58;20.60;71.60
44431;DHT22;30135;47.866;-4.222;2022-07-23T09:47:27;20.70;71.20
44431;DHT22;30135;47.866;-4.222;2022-07-23T09:50:02;20.70;70.80
44431;DHT22;30135;47.866;-4.222;2022-07-23T09:52:48;20.80;70.30
44431;DHT22;30135;47.866;-4.222;2022-07-23T09:55:16;20.80;70.00
44431;DHT22;30135;47.866;-4.222;2022-07-23T09:57:49;20.80;70.00
44431;DHT22;30135;47.866;-4.222;2022-07-23T10:00:23;20.90;69.80
44431;DHT22;30135;47.866;-4.222;2022-07-23T10:02:51;20.90;69.30
44431;DHT22;30135;47.866;-4.222;2022-07-23T10:05:17;21.00;68.90
44431;DHT22;30135;47.866;-4.222;2022-07-23T10:07:45;21.00;68.50
44431;DHT22;30135;47.866;-4.222;2022-07-23T10:10:13;21.10;68.10
44431;DHT22;30135;47.866;-4.222;2022-07-23T10:12:43;21.10;67.60
44431;DHT22;30135;47.866;-4.222;2022-07-23T10:15:28;21.20;67.10
44431;DHT22;30135;47.866;-4.222;2022-07-23T10:17:55;21.20;66.90
44431;DHT22;30135;47.866;-4.222;2022-07-23T10:20:21;21.30;66.40
44431;DHT22;30135;47.866;-4.222;2022-07-23T10:23:33;21.30;66.20
44431;DHT22;30135;47.866;-4.222;2022-07-23T10:31:35;21.50;65.40
44431;DHT22;30135;47.866;-4.222;2022-07-23T10:39:33;21.60;64.90
44431;DHT22;30135;47.866;-4.222;2022-07-23T10:42:14;21.70;64.70
44431;DHT22;30135;47.866;-4.222;2022-07-23T10:44:46;21.70;63.90
44431;DHT22;30135;47.866;-4.222;2022-07-23T10:47:28;21.80;63.70
44431;DHT22;30135;47.866;-4.222;2022-07-23T10:50:24;21.80;63.70
44431;DHT22;30135;47.866;-4.222;2022-07-23T10:58:07;22.00;63.50
44431;DHT22;30135;47.866;-4.222;2022-07-23T11:00:35;22.00;63.40
44431;DHT22;30135;47.866;-4.222;2022-07-23T11:03:04;22.10;63.30
44431;DHT22;30135;47.866;-4.222;2022-07-23T11:05:45;22.10;63.30
44431;DHT22;30135;47.866;-4.222;2022-07-23T11:08:29;22.10;63.10
44431;DHT22;30135;47.866;-4.222;2022-07-23T11:11:17;22.20;63.20
44431;DHT22;30135;47.866;-4.222;2022-07-23T11:13:47;22.20;63.40
44431;DHT22;30135;47.866;-4.222;2022-07-23T11:16:22;22.30;63.60
44431;DHT22;30135;47.866;-4.222;2022-07-23T11:18:57;22.30;63.20
44431;DHT22;30135;47.866;-4.222;2022-07-23T11:24:00;22.30;63.20
44431;DHT22;30135;47.866;-4.222;2022-07-23T11:32:05;22.60;62.30
44431;DHT22;30135;47.866;-4.222;2022-07-23T11:34:48;22.70;62.20
44431;DHT22;30135;47.866;-4.222;2022-07-23T11:40:15;22.80;61.40
44431;DHT22;30135;47.866;-4.222;2022-07-23T11:43:05;22.90;61.50
44431;DHT22;30135;47.866;-4.222;2022-07-23T11:45:44;22.90;61.40
44431;DHT22;30135;47.866;-4.222;2022-07-23T11:50:46;23.00;61.60
44431;DHT22;30135;47.866;-4.222;2022-07-23T11:53:13;23.00;61.60
44431;DHT22;30135;47.866;-4.222;2022-07-23T11:55:50;23.00;61.40
44431;DHT22;30135;47.866;-4.222;2022-07-23T11:58:23;23.10;61.40
44431;DHT22;30135;47.866;-4.222;2022-07-23T12:00:49;23.20;61.40
44431;DHT22;30135;47.866;-4.222;2022-07-23T12:03:16;23.30;61.30
44431;DHT22;30135;47.866;-4.222;2022-07-23T12:05:43;23.30;61.00
44431;DHT22;30135;47.866;-4.222;2022-07-23T12:08:10;23.40;60.90
44431;DHT22;30135;47.866;-4.222;2022-07-23T12:10:43;23.40;61.40
44431;DHT22;30135;47.866;-4.222;2022-07-23T12:13:12;23.50;60.10
44431;DHT22;30135;47.866;-4.222;2022-07-23T12:15:52;23.50;60.00
44431;DHT22;30135;47.866;-4.222;2022-07-23T12:18:24;23.60;59.80
44431;DHT22;30135;47.866;-4.222;2022-07-23T12:20:56;23.70;59.70
44431;DHT22;30135;47.866;-4.222;2022-07-23T12:23:26;23.70;59.50
44431;DHT22;30135;47.866;-4.222;2022-07-23T12:25:53;23.70;59.30
44431;DHT22;30135;47.866;-4.222;2022-07-23T12:28:29;23.80;59.20
44431;DHT22;30135;47.866;-4.222;2022-07-23T12:30:57;23.80;58.80
44431;DHT22;30135;47.866;-4.222;2022-07-23T12:33:32;23.90;59.00
44431;DHT22;30135;47.866;-4.222;2022-07-23T12:36:02;23.90;58.70
44431;DHT22;30135;47.866;-4.222;2022-07-23T12:38:37;23.90;58.70
44431;DHT22;30135;47.866;-4.222;2022-07-23T12:41:05;24.00;58.80
44431;DHT22;30135;47.866;-4.222;2022-07-23T12:43:44;23.90;58.80
44431;DHT22;30135;47.866;-4.222;2022-07-23T12:46:19;24.00;59.10
44431;DHT22;30135;47.866;-4.222;2022-07-23T12:51:24;24.00;59.00
44431;DHT22;30135;47.866;-4.222;2022-07-23T12:54:04;24.00;58.80
44431;DHT22;30135;47.866;-4.222;2022-07-23T12:56:34;24.10;58.90
44431;DHT22;30135;47.866;-4.222;2022-07-23T12:59:13;24.10;58.40
44431;DHT22;30135;47.866;-4.222;2022-07-23T13:02:00;24.20;58.20
44431;DHT22;30135;47.866;-4.222;2022-07-23T13:04:32;24.20;58.00
44431;DHT22;30135;47.866;-4.222;2022-07-23T13:07:00;24.30;57.90
44431;DHT22;30135;47.866;-4.222;2022-07-23T13:09:29;24.30;57.70
44431;DHT22;30135;47.866;-4.222;2022-07-23T13:11:58;24.30;57.80
44431;DHT22;30135;47.866;-4.222;2022-07-23T13:14:26;24.40;57.60
44431;DHT22;30135;47.866;-4.222;2022-07-23T13:16:54;24.40;57.40
44431;DHT22;30135;47.866;-4.222;2022-07-23T13:19:20;24.50;57.40
44431;DHT22;30135;47.866;-4.222;2022-07-23T13:21:53;24.50;57.30
44431;DHT22;30135;47.866;-4.222;2022-07-23T13:24:21;24.60;57.40
44431;DHT22;30135;47.866;-4.222;2022-07-23T13:26:47;24.60;57.10
44431;DHT22;30135;47.866;-4.222;2022-07-23T13:29:17;24.70;57.20
44431;DHT22;30135;47.866;-4.222;2022-07-23T13:31:43;24.70;56.90
44431;DHT22;30135;47.866;-4.222;2022-07-23T13:34:09;24.70;56.70
44431;DHT22;30135;47.866;-4.222;2022-07-23T13:36:35;24.70;56.60
44431;DHT22;30135;47.866;-4.222;2022-07-23T13:39:02;24.80;56.60
44431;DHT22;30135;47.866;-4.222;2022-07-23T13:41:29;24.80;56.70
44431;DHT22;30135;47.866;-4.222;2022-07-23T13:43:54;24.80;56.70
44431;DHT22;30135;47.866;-4.222;2022-07-23T13:46:23;24.90;56.70
44431;DHT22;30135;47.866;-4.222;2022-07-23T13:48:49;24.90;56.60
44431;DHT22;30135;47.866;-4.222;2022-07-23T13:51:16;24.90;56.60
44431;DHT22;30135;47.866;-4.222;2022-07-23T13:53:46;24.90;56.60
44431;DHT22;30135;47.866;-4.222;2022-07-23T13:56:12;24.90;56.50
44431;DHT22;30135;47.866;-4.222;2022-07-23T13:58:38;24.80;56.50
44431;DHT22;30135;47.866;-4.222;2022-07-23T14:01:12;24.90;56.50
44431;DHT22;30135;47.866;-4.222;2022-07-23T14:03:38;24.80;56.60
44431;DHT22;30135;47.866;-4.222;2022-07-23T14:06:04;24.80;56.60
44431;DHT22;30135;47.866;-4.222;2022-07-23T14:08:31;24.80;56.50
44431;DHT22;30135;47.866;-4.222;2022-07-23T14:10:57;24.80;56.70
44431;DHT22;30135;47.866;-4.222;2022-07-23T14:13:23;24.90;56.80
44431;DHT22;30135;47.866;-4.222;2022-07-23T14:15:49;24.90;56.70
44431;DHT22;30135;47.866;-4.222;2022-07-23T14:18:16;25.00;56.60
44431;DHT22;30135;47.866;-4.222;2022-07-23T14:20:42;25.10;56.30
44431;DHT22;30135;47.866;-4.222;2022-07-23T14:23:08;25.00;56.20
44431;DHT22;30135;47.866;-4.222;2022-07-23T14:25:33;24.90;56.20
44431;DHT22;30135;47.866;-4.222;2022-07-23T14:27:59;24.80;56.40
44431;DHT22;30135;47.866;-4.222;2022-07-23T14:30:25;24.90;56.40
44431;DHT22;30135;47.866;-4.222;2022-07-23T14:33:07;24.90;56.40
44431;DHT22;30135;47.866;-4.222;2022-07-23T14:35:47;24.90;56.30
44431;DHT22;30135;47.866;-4.222;2022-07-23T14:38:13;24.90;56.20
44431;DHT22;30135;47.866;-4.222;2022-07-23T14:40:39;24.90;56.30
44431;DHT22;30135;47.866;-4.222;2022-07-23T14:43:05;24.80;56.30
44431;DHT22;30135;47.866;-4.222;2022-07-23T14:45:31;24.80;56.70
44431;DHT22;30135;47.866;-4.222;2022-07-23T14:47:57;24.80;57.20
44431;DHT22;30135;47.866;-4.222;2022-07-23T14:50:24;24.80;56.60
44431;DHT22;30135;47.866;-4.222;2022-07-23T14:52:50;24.80;56.70
44431;DHT22;30135;47.866;-4.222;2022-07-23T14:55:16;24.80;56.70
44431;DHT22;30135;47.866;-4.222;2022-07-23T14:57:45;24.80;56.90
44431;DHT22;30135;47.866;-4.222;2022-07-23T15:00:13;24.70;57.00
44431;DHT22;30135;47.866;-4.222;2022-07-23T15:02:39;24.70;57.10
44431;DHT22;30135;47.866;-4.222;2022-07-23T15:05:05;24.70;57.10
44431;DHT22;30135;47.866;-4.222;2022-07-23T15:07:32;24.70;56.80
44431;DHT22;30135;47.866;-4.222;2022-07-23T15:09:58;24.70;56.90
44431;DHT22;30135;47.866;-4.222;2022-07-23T15:12:24;24.70;57.10
44431;DHT22;30135;47.866;-4.222;2022-07-23T15:14:50;24.70;57.20
44431;DHT22;30135;47.866;-4.222;2022-07-23T15:17:16;24.70;57.10
44431;DHT22;30135;47.866;-4.222;2022-07-23T15:19:42;24.70;57.00
44431;DHT22;30135;47.866;-4.222;2022-07-23T15:22:08;24.70;57.10
44431;DHT22;30135;47.866;-4.222;2022-07-23T15:24:34;24.70;57.10
44431;DHT22;30135;47.866;-4.222;2022-07-23T15:27:00;24.70;57.10
44431;DHT22;30135;47.866;-4.222;2022-07-23T15:29:26;24.60;57.00
44431;DHT22;30135;47.866;-4.222;2022-07-23T15:31:52;24.70;57.20
44431;DHT22;30135;47.866;-4.222;2022-07-23T15:34:17;24.60;57.10
44431;DHT22;30135;47.866;-4.222;2022-07-23T15:36:50;24.60;57.20
44431;DHT22;30135;47.866;-4.222;2022-07-23T15:39:17;24.60;57.10
44431;DHT22;30135;47.866;-4.222;2022-07-23T15:41:43;24.60;57.20
44431;DHT22;30135;47.866;-4.222;2022-07-23T15:44:09;24.60;57.20
44431;DHT22;30135;47.866;-4.222;2022-07-23T15:46:35;24.60;57.30
44431;DHT22;30135;47.866;-4.222;2022-07-23T15:49:01;24.60;57.30
44431;DHT22;30135;47.866;-4.222;2022-07-23T15:51:27;24.60;57.10
44431;DHT22;30135;47.866;-4.222;2022-07-23T15:53:54;24.70;57.10
44431;DHT22;30135;47.866;-4.222;2022-07-23T15:56:21;24.60;57.00
44431;DHT22;30135;47.866;-4.222;2022-07-23T15:58:47;24.70;57.00
44431;DHT22;30135;47.866;-4.222;2022-07-23T16:01:13;24.70;56.90